Portada
METAR-TAF:

METAR-TAF

Aeroports :

Aomori, Japó

latitud: 40-44N, longitud: 140-42E, altitud: 199 m

Observació

L'informe es va fer fa 3 hores i 39 minuts, a les 12:00 UTC
Vent 9 kt del Sud-Oest
Temperatura 13°C
Humitat 72%
Pressió 1013 hPa
Visibilitat 10 km o més
sense núvols per sota de 1500 mi sense presència de cumulonimbus.

METAR: RJSA 221200Z 22009KT CAVOK 13/08 Q1013

Hora: 00:39 (15:39 UTC)

Pronòstic

L'informe es va fer fa 4 hores i 34 minuts, a les 11:05 UTC
Pronòstic vàlid del 22 a les 12 UTC al 23 a les 18 UTC
Vent 14 kt del Sud/Sud-Oest
Visibilitat 10 km o més
Escasses núvols a una alçada de 3000 ft
Temporalment
l' 22 a les 21 UTC al 23 a les 09 UTC
Vent 24 kt del Oest/Sud-Oest amb ràfegues de 34 kt

TAF: RJSA 221105Z 2212/2318 21014KT 9999 FEW030 TEMPO 2221/2309 24024G34KT

Observacions i pronòstics meteorològics de més de 4000 aeroports (METAR i TAF).

Les estacions disponibles són els punts grocs i vermells al mapa.

Posi el ratolí al punt desitjat per veure el nom de l'estació.

Feu clic per veure les observacions i els pronòstics meteorològics.

Per canviar el mapa: feu clic els botons verds amb una creu de color negre per apropar; al botó verd amb un guió per allunyar la imatge; o en les fletxes verdes per a mapes adjacents.


METAR-TAF: